Time;durP1;ratioP1;P1;durP2;ratioP2;P2;SDS_P1;SDS_P2;PMS_P1;PMS_P2;Temp;Humidity;BMP_temperature;BMP_pressure;BME280_temperature;BME280_humidity;BME280_pressure;Samples;Min_cycle;Max_cycle;Signal;HPM_P1;HPM_P2
2023/07/08 00:00:53;;;;;;;10.65;6.45;;;;;;;;;;4917975;29;20503;-80
2023/07/08 00:03:23;;;;;;;13.98;7.32;;;;;;;;;;4923145;29;20067;-80
2023/07/08 00:05:56;;;;;;;12.43;6.85;;;;;;;;;;4898196;29;20028;-80
2023/07/08 00:08:22;;;;;;;10.70;6.65;;;;;;;;;;4897432;29;20032;-79
2023/07/08 00:10:54;;;;;;;12.77;7.07;;;;;;;;;;4899723;29;20068;-80
2023/07/08 00:13:26;;;;;;;14.85;7.85;;;;;;;;;;4894699;29;20066;-81
2023/07/08 00:15:58;;;;;;;12.43;7.35;;;;;;;;;;4901764;29;20071;-81
2023/07/08 00:18:27;;;;;;;13.45;7.28;;;;;;;;;;4906827;29;20031;-81
2023/07/08 00:20:53;;;;;;;12.13;7.40;;;;;;;;;;4901179;29;20028;-80
2023/07/08 00:23:22;;;;;;;14.00;7.72;;;;;;;;;;4924573;29;20024;-81
2023/07/08 00:25:48;;;;;;;11.48;7.07;;;;;;;;;;4922300;29;20031;-81
2023/07/08 00:28:19;;;;;;;13.77;7.57;;;;;;;;;;4915498;29;20025;-81
2023/07/08 00:30:47;;;;;;;12.30;7.35;;;;;;;;;;4913530;29;20566;-81
2023/07/08 00:33:13;;;;;;;11.48;6.70;;;;;;;;;;4913469;29;20209;-80
2023/07/08 00:35:43;;;;;;;11.27;7.03;;;;;;;;;;4915808;29;20028;-82
2023/07/08 00:38:20;;;;;;;14.10;7.67;;;;;;;;;;4911233;29;20032;-83
2023/07/08 00:40:58;;;;;;;12.50;7.57;;;;;;;;;;4916974;29;20316;-83
2023/07/08 00:43:30;;;;;;;11.50;6.97;;;;;;;;;;4926432;29;20024;-80
2023/07/08 00:46:03;;;;;;;11.15;6.30;;;;;;;;;;4918276;29;20366;-81
2023/07/08 00:48:38;;;;;;;12.32;7.38;;;;;;;;;;4898006;29;20074;-82
2023/07/08 00:51:04;;;;;;;11.57;7.07;;;;;;;;;;4897438;29;20047;-81
2023/07/08 00:53:32;;;;;;;14.75;7.63;;;;;;;;;;4921037;29;20028;-81
2023/07/08 00:56:05;;;;;;;11.65;7.30;;;;;;;;;;4899924;29;20032;-80
2023/07/08 00:58:37;;;;;;;10.68;7.13;;;;;;;;;;4900035;29;20032;-81
2023/07/08 01:01:11;;;;;;;16.33;7.80;;;;;;;;;;4896307;29;20127;-81
2023/07/08 01:03:50;;;;;;;12.35;7.35;;;;;;;;;;4898642;29;20059;-80
2023/07/08 01:06:31;;;;;;;14.68;7.80;;;;;;;;;;4912047;29;20032;-80
2023/07/08 01:08:57;;;;;;;14.32;7.82;;;;;;;;;;4897856;29;20139;-80
2023/07/08 01:11:24;;;;;;;12.07;7.50;;;;;;;;;;4915717;29;20490;-82
2023/07/08 01:13:53;;;;;;;15.32;7.55;;;;;;;;;;4900533;29;20111;-80
2023/07/08 01:16:23;;;;;;;12.50;7.43;;;;;;;;;;4918599;29;20392;-80
2023/07/08 01:18:53;;;;;;;11.88;7.57;;;;;;;;;;4915609;29;20074;-81
2023/07/08 01:21:31;;;;;;;12.55;7.28;;;;;;;;;;4917028;29;20043;-82
2023/07/08 01:24:00;;;;;;;14.07;7.85;;;;;;;;;;4922191;29;20032;-81
2023/07/08 01:26:26;;;;;;;13.15;7.05;;;;;;;;;;4914836;29;20024;-79
2023/07/08 01:28:53;;;;;;;12.20;7.55;;;;;;;;;;4898751;29;20029;-79
2023/07/08 01:31:22;;;;;;;10.88;6.88;;;;;;;;;;4899873;29;20120;-80
2023/07/08 01:33:50;;;;;;;12.18;7.50;;;;;;;;;;4903162;29;20080;-80
2023/07/08 01:36:17;;;;;;;12.10;7.43;;;;;;;;;;4915807;29;20024;-79
2023/07/08 01:38:43;;;;;;;12.57;7.93;;;;;;;;;;4901168;29;20508;-80
2023/07/08 01:41:13;;;;;;;13.80;7.30;;;;;;;;;;4907252;29;20039;-80
2023/07/08 01:43:42;;;;;;;13.15;7.70;;;;;;;;;;4920143;29;20455;-80
2023/07/08 01:46:12;;;;;;;13.55;8.10;;;;;;;;;;4903842;29;20036;-80
2023/07/08 01:48:43;;;;;;;12.02;7.43;;;;;;;;;;4909290;29;20118;-79
2023/07/08 01:51:12;;;;;;;12.15;7.57;;;;;;;;;;4907138;29;20043;-80
2023/07/08 01:53:40;;;;;;;14.52;7.75;;;;;;;;;;4924467;29;20032;-80
2023/07/08 01:56:07;;;;;;;11.85;6.97;;;;;;;;;;4922253;29;20036;-81
2023/07/08 01:58:37;;;;;;;12.82;7.20;;;;;;;;;;4925438;29;20431;-79
2023/07/08 02:01:06;;;;;;;11.45;7.57;;;;;;;;;;4918496;29;20028;-79
2023/07/08 02:03:32;;;;;;;12.40;7.25;;;;;;;;;;4904140;29;20028;-80
2023/07/08 02:05:58;;;;;;;12.88;7.60;;;;;;;;;;4907916;29;20117;-80
2023/07/08 02:08:24;;;;;;;17.95;7.63;;;;;;;;;;4905527;29;20027;-79
2023/07/08 02:10:55;;;;;;;14.48;8.13;;;;;;;;;;4907137;29;21054;-80
2023/07/08 02:13:22;;;;;;;14.10;7.45;;;;;;;;;;4906742;29;20088;-80
2023/07/08 02:15:48;;;;;;;12.57;6.97;;;;;;;;;;4919848;29;20037;-80
2023/07/08 02:18:24;;;;;;;12.48;7.78;;;;;;;;;;4911498;29;20067;-80
2023/07/08 02:20:53;;;;;;;15.07;7.88;;;;;;;;;;4919912;29;20035;-81
2023/07/08 02:23:19;;;;;;;13.07;7.93;;;;;;;;;;4908400;29;20024;-81
2023/07/08 02:25:52;;;;;;;15.35;8.20;;;;;;;;;;4906545;29;20501;-79
2023/07/08 02:28:18;;;;;;;13.70;7.00;;;;;;;;;;4902353;29;20072;-79
2023/07/08 02:30:46;;;;;;;14.07;7.72;;;;;;;;;;4905872;29;20052;-79
2023/07/08 02:33:12;;;;;;;12.02;7.60;;;;;;;;;;4916645;29;20029;-80
2023/07/08 02:35:39;;;;;;;11.98;7.22;;;;;;;;;;4903629;29;20036;-80
2023/07/08 02:38:05;;;;;;;11.65;7.25;;;;;;;;;;4925641;29;20032;-81
2023/07/08 02:40:31;;;;;;;13.00;7.32;;;;;;;;;;4903527;29;20123;-82
2023/07/08 02:42:57;;;;;;;11.95;7.05;;;;;;;;;;4918459;29;20111;-79
2023/07/08 02:45:24;;;;;;;12.50;8.02;;;;;;;;;;4901314;29;20028;-82
2023/07/08 02:47:51;;;;;;;12.77;7.75;;;;;;;;;;4920888;29;20264;-80
2023/07/08 02:50:20;;;;;;;14.70;7.78;;;;;;;;;;4920142;29;20612;-79
2023/07/08 02:52:46;;;;;;;12.30;7.13;;;;;;;;;;4918997;29;20040;-79
2023/07/08 02:55:12;;;;;;;13.93;8.02;;;;;;;;;;4918221;29;20060;-79
2023/07/08 02:57:41;;;;;;;13.02;7.97;;;;;;;;;;4919202;29;20044;-83
2023/07/08 03:00:24;;;;;;;14.40;7.68;;;;;;;;;;4922937;29;20107;-80
2023/07/08 03:02:54;;;;;;;13.52;8.23;;;;;;;;;;4922515;29;20044;-80
2023/07/08 03:05:21;;;;;;;14.15;7.60;;;;;;;;;;4922123;29;20531;-86
2023/07/08 03:07:47;;;;;;;11.90;7.47;;;;;;;;;;4897933;29;20021;-80
2023/07/08 03:10:13;;;;;;;12.95;7.35;;;;;;;;;;4923292;29;20028;-80
2023/07/08 03:12:39;;;;;;;17.33;7.57;;;;;;;;;;4920368;29;20028;-80
2023/07/08 03:15:06;;;;;;;11.50;7.43;;;;;;;;;;4918885;29;20537;-81
2023/07/08 03:17:32;;;;;;;13.63;7.60;;;;;;;;;;4906107;29;20060;-79
2023/07/08 03:19:58;;;;;;;12.82;8.05;;;;;;;;;;4922069;29;20028;-79
2023/07/08 03:22:25;;;;;;;12.82;7.82;;;;;;;;;;4901374;29;20024;-81
2023/07/08 03:24:51;;;;;;;11.60;7.53;;;;;;;;;;4919023;29;20048;-80
2023/07/08 03:27:20;;;;;;;14.15;7.78;;;;;;;;;;4900583;29;20035;-80
2023/07/08 03:29:47;;;;;;;12.43;7.18;;;;;;;;;;4923911;29;20028;-81
2023/07/08 03:32:13;;;;;;;11.85;7.75;;;;;;;;;;4907930;29;20038;-81
2023/07/08 03:34:39;;;;;;;13.27;7.57;;;;;;;;;;4904310;29;20033;-79
2023/07/08 03:37:06;;;;;;;12.85;7.82;;;;;;;;;;4903778;29;20035;-80
2023/07/08 03:39:32;;;;;;;13.05;7.28;;;;;;;;;;4921245;29;20036;-81
2023/07/08 03:41:58;;;;;;;13.38;7.88;;;;;;;;;;4904897;29;20028;-82
2023/07/08 03:44:24;;;;;;;13.50;7.97;;;;;;;;;;4904983;29;20098;-82
2023/07/08 03:46:54;;;;;;;12.88;8.15;;;;;;;;;;4903576;29;20043;-81
2023/07/08 03:49:23;;;;;;;13.95;8.05;;;;;;;;;;4908516;29;20028;-80
2023/07/08 03:51:53;;;;;;;14.60;7.80;;;;;;;;;;4920739;29;20088;-79
2023/07/08 03:54:19;;;;;;;15.90;7.80;;;;;;;;;;4923450;29;20032;-79
2023/07/08 03:56:46;;;;;;;10.98;7.20;;;;;;;;;;4904415;29;20300;-80
2023/07/08 03:59:12;;;;;;;12.82;7.38;;;;;;;;;;4888849;29;20038;-80
2023/07/08 04:01:41;;;;;;;13.32;7.20;;;;;;;;;;4905503;29;20032;-81
2023/07/08 04:04:07;;;;;;;13.73;7.72;;;;;;;;;;4898431;29;20036;-79
2023/07/08 04:06:34;;;;;;;12.05;7.53;;;;;;;;;;4920944;29;20040;-80
2023/07/08 04:09:00;;;;;;;12.02;8.13;;;;;;;;;;4903012;29;20396;-80
2023/07/08 04:11:26;;;;;;;16.38;8.02;;;;;;;;;;4917333;29;20037;-80
2023/07/08 04:13:53;;;;;;;11.15;7.25;;;;;;;;;;4904277;29;20028;-80
2023/07/08 04:16:22;;;;;;;14.15;8.10;;;;;;;;;;4917825;29;20059;-80
2023/07/08 04:18:53;;;;;;;13.68;9.05;;;;;;;;;;4913847;29;20024;-80
2023/07/08 04:21:19;;;;;;;14.55;8.15;;;;;;;;;;4905999;29;20032;-82
2023/07/08 04:23:45;;;;;;;13.23;7.47;;;;;;;;;;4917850;29;20032;-79
2023/07/08 04:26:11;;;;;;;14.07;7.47;;;;;;;;;;4904374;29;20097;-80
2023/07/08 04:28:38;;;;;;;13.48;8.02;;;;;;;;;;4900624;29;20037;-80
2023/07/08 04:31:04;;;;;;;15.13;7.90;;;;;;;;;;4905812;29;20036;-80
2023/07/08 04:33:33;;;;;;;16.02;8.05;;;;;;;;;;4905807;29;20468;-81
2023/07/08 04:35:59;;;;;;;13.48;7.80;;;;;;;;;;4914019;29;20453;-80
2023/07/08 04:38:26;;;;;;;17.80;8.45;;;;;;;;;;4899260;29;20028;-81
2023/07/08 04:40:57;;;;;;;16.17;8.25;;;;;;;;;;4916215;29;20024;-80
2023/07/08 04:43:28;;;;;;;14.15;8.30;;;;;;;;;;4902596;29;20485;-83
2023/07/08 04:45:55;;;;;;;12.65;7.78;;;;;;;;;;4902142;29;20135;-82
2023/07/08 04:48:22;;;;;;;13.73;7.65;;;;;;;;;;4899443;29;20035;-80
2023/07/08 04:50:49;;;;;;;13.07;7.85;;;;;;;;;;4898590;29;20028;-80
2023/07/08 04:53:15;;;;;;;13.45;7.43;;;;;;;;;;4898090;29;20086;-79
2023/07/08 04:55:52;;;;;;;13.95;7.60;;;;;;;;;;4917231;29;20087;-80
2023/07/08 04:58:18;;;;;;;12.55;7.57;;;;;;;;;;4904172;29;20043;-79
2023/07/08 05:00:46;;;;;;;13.18;7.40;;;;;;;;;;4917498;29;20028;-85
2023/07/08 05:03:15;;;;;;;14.52;8.10;;;;;;;;;;4906401;29;20039;-84
2023/07/08 05:05:41;;;;;;;18.15;8.65;;;;;;;;;;4919595;29;20051;-80
2023/07/08 05:08:08;;;;;;;14.38;8.00;;;;;;;;;;4911261;29;20466;-81
2023/07/08 05:10:34;;;;;;;13.52;7.88;;;;;;;;;;4902795;29;20036;-80
2023/07/08 05:13:00;;;;;;;10.90;6.70;;;;;;;;;;4897299;29;20035;-80
2023/07/08 05:15:29;;;;;;;15.23;8.20;;;;;;;;;;4911659;29;20032;-83
2023/07/08 05:17:56;;;;;;;15.00;8.18;;;;;;;;;;4904879;29;20158;-81
2023/07/08 05:20:25;;;;;;;13.18;7.85;;;;;;;;;;4904006;29;20048;-83
2023/07/08 05:22:58;;;;;;;14.98;8.40;;;;;;;;;;4904052;29;20111;-82
2023/07/08 05:25:27;;;;;;;12.45;7.95;;;;;;;;;;4903546;29;20024;-81
2023/07/08 05:28:09;;;;;;;41.10;9.23;;;;;;;;;;4913117;29;20493;-80
2023/07/08 05:30:35;;;;;;;16.20;7.35;;;;;;;;;;4903432;29;20523;-81
2023/07/08 05:33:05;;;;;;;12.80;7.50;;;;;;;;;;4910617;29;20117;-81
2023/07/08 05:35:33;;;;;;;;;;;22.80;99.90;;;;;;4906611;29;20485;-81
2023/07/08 05:38:00;;;;;;;13.13;8.00;;;;;;;;;;4921044;29;19911;-79
2023/07/08 05:43:23;;;;;;;14.82;8.40;;;;;;;;;;4906474;29;20052;-81
2023/07/08 05:45:52;;;;;;;13.75;7.53;;;;;;;;;;4921554;29;20039;-80
2023/07/08 05:48:28;;;;;;;12.73;8.15;;;;;;;;;;4883802;29;20049;-80
2023/07/08 05:50:57;;;;;;;11.93;7.82;;;;;;;;;;4919994;29;20127;-79
2023/07/08 05:53:25;;;;;;;11.95;7.93;;;;;;;;;;4919808;29;20493;-80
2023/07/08 05:55:54;;;;;;;12.90;7.93;;;;;;;;;;4909127;29;20071;-80
2023/07/08 06:01:48;;;;;;;10.85;7.32;;;;;;;;;;4867353;29;20076;-79
2023/07/08 06:04:17;;;;;;;11.73;7.93;;;;;;;;;;4921168;29;20036;-80
2023/07/08 06:06:43;;;;;;;10.75;7.30;;;;;;;;;;4917953;29;20072;-79
2023/07/08 06:09:09;;;;;;;13.02;7.75;;;;;;;;;;4903404;29;20047;-80
2023/07/08 06:11:40;;;;;;;13.27;7.72;;;;;;;;;;4894689;29;20044;-82
2023/07/08 06:14:07;;;;;;;9.70;7.03;;;;;;;;;;4920942;29;20075;-82
2023/07/08 06:16:36;;;;;;;12.85;7.78;;;;;;;;;;4907127;29;20080;-79
2023/07/08 06:19:03;;;;;;;11.88;7.88;;;;;;;;;;4919562;29;20520;-80
2023/07/08 06:21:30;;;;;;;10.60;7.60;;;;;;;;;;4908315;29;20022;-80
2023/07/08 06:23:59;;;;;;;13.75;7.18;;;;;;;;;;4914044;29;20036;-80
2023/07/08 06:26:29;;;;;;;12.95;7.70;;;;;;;;;;4921304;29;20112;-81
2023/07/08 06:28:58;;;;;;;14.02;7.63;;;;;;;;;;4924454;29;20040;-79
2023/07/08 06:31:27;;;;;;;11.80;6.75;;;;;;;;;;4901114;29;20063;-83
2023/07/08 06:33:53;;;;;;;9.60;6.40;;;;;;;;;;4906868;29;20036;-78
2023/07/08 06:36:27;;;;;;;12.32;7.03;;;;;;;;;;4904518;29;20104;-80
2023/07/08 06:38:54;;;;;;;11.05;6.30;;;;;;;;;;4910039;29;20115;-78
2023/07/08 06:41:20;;;;;;;11.05;6.57;;;;;;;;;;4902451;29;20488;-79
2023/07/08 06:43:49;;;;;;;11.27;6.85;;;;;;;;;;4899318;29;20036;-79
2023/07/08 06:46:18;;;;;;;12.30;7.00;;;;;;;;;;4916939;29;20044;-80
2023/07/08 06:48:45;;;;;;;13.18;7.25;;;;;;;;;;4907224;29;20079;-78
2023/07/08 06:51:11;;;;;;;11.35;6.90;;;;;;;;;;4925515;29;20504;-78
2023/07/08 06:53:40;;;;;;;13.63;6.55;;;;;;;;;;4905790;29;20456;-81
2023/07/08 06:56:07;;;;;;;9.75;5.68;;;;;;;;;;4907324;29;20048;-78
2023/07/08 06:58:33;;;;;;;12.05;6.53;;;;;;;;;;4922925;29;20028;-78
2023/07/08 07:01:04;;;;;;;11.35;6.75;;;;;;;;;;4903344;29;20034;-79
2023/07/08 07:03:31;;;;;;;11.75;6.40;;;;;;;;;;4925157;29;20060;-79
2023/07/08 07:06:03;;;;;;;13.15;6.90;;;;;;;;;;4906647;29;20104;-79
2023/07/08 07:08:30;;;;;;;11.70;6.60;;;;;;;;;;4920861;29;20556;-78
2023/07/08 07:10:56;;;;;;;13.95;6.90;;;;;;;;;;4916034;29;20511;-78
2023/07/08 07:13:25;;;;;;;12.95;6.90;;;;;;;;;;4911609;29;20043;-79
2023/07/08 07:15:51;;;;;;;10.23;6.30;;;;;;;;;;4904174;29;20032;-80
2023/07/08 07:18:17;;;;;;;11.23;5.20;;;;;;;;;;4920840;29;20460;-78
2023/07/08 07:20:51;;;;;;;14.70;5.68;;;;;;;;;;4919047;29;20492;-77
2023/07/08 07:23:20;;;;;;;8.32;5.80;;;;;;;;;;4919108;29;20586;-79
2023/07/08 07:25:50;;;;;;;9.07;5.40;;;;;;;;;;4916660;29;20108;-79
2023/07/08 07:28:17;;;;;;;;;;;25.30;94.00;;;;;;4920767;29;20397;-78
2023/07/08 07:30:44;;;;;;;10.77;5.68;;;;;;;;;;4915540;29;19910;-79
2023/07/08 07:33:10;;;;;;;9.95;5.50;;;;;;;;;;4905125;29;20991;-80
2023/07/08 07:35:37;;;;;;;11.80;4.93;;;;;;;;;;4917964;29;20404;-78
2023/07/08 07:38:03;;;;;;;9.75;5.05;;;;;;;;;;4904094;29;20496;-80
2023/07/08 07:40:29;;;;;;;8.23;4.80;;;;;;;;;;4918935;29;20032;-79
2023/07/08 07:42:55;;;;;;;8.02;4.60;;;;;;;;;;4903295;29;20369;-81
2023/07/08 07:45:25;;;;;;;9.65;4.82;;;;;;;;;;4925614;29;20028;-81
2023/07/08 07:47:53;;;;;;;8.75;4.57;;;;;;;;;;4905306;29;20488;-80
2023/07/08 07:50:20;;;;;;;9.65;4.80;;;;;;;;;;4922898;29;20042;-80
2023/07/08 07:52:46;;;;;;;7.72;4.22;;;;;;;;;;4904134;29;20585;-79
2023/07/08 07:55:13;;;;;;;7.47;4.35;;;;;;;;;;4928059;29;20493;-82
2023/07/08 07:57:48;;;;;;;7.43;4.68;;;;;;;;;;4914062;29;20032;-79
2023/07/08 08:00:17;;;;;;;11.20;4.53;;;;;;;;;;4920629;29;20041;-80
2023/07/08 08:02:45;;;;;;;8.48;4.22;;;;;;;;;;4911943;29;20115;-78
2023/07/08 08:05:28;;;;;;;;;;;26.80;95.10;;;;;;4928571;29;20052;-81
2023/07/08 08:07:54;;;;;;;8.55;4.72;;;;;;;;;;4925778;29;20034;-79
2023/07/08 08:10:24;;;;;;;8.80;4.35;;;;;;;;;;4927034;29;20036;-81
2023/07/08 08:12:53;;;;;;;7.20;4.38;;;;;;;;;;4927989;29;20027;-78
2023/07/08 08:15:41;;;;;;;10.15;4.07;;;;;;;;;;4924379;29;20036;-80
2023/07/08 08:18:13;;;;;;;7.85;4.50;;;;;;;;;;4922990;29;20377;-80
2023/07/08 08:20:41;;;;;;;9.65;4.30;;;;;;;;;;4903104;29;20036;-82
2023/07/08 08:23:12;;;;;;;10.38;4.40;;;;;;;;;;4918086;29;20161;-81
2023/07/08 08:25:39;;;;;;;8.18;4.60;;;;;;;;;;4900853;29;20088;-80
2023/07/08 08:28:06;;;;;;;8.38;4.38;;;;;;;;;;4909012;29;20028;-80
2023/07/08 08:30:33;;;;;;;9.32;4.57;;;;;;;;;;4912992;29;20361;-79
2023/07/08 08:33:05;;;;;;;7.22;4.22;;;;;;;;;;4904070;29;20032;-80
2023/07/08 08:35:34;;;;;;;12.23;4.88;;;;;;;;;;4895914;29;20036;-81
2023/07/08 08:38:02;;;;;;;7.90;4.22;;;;;;;;;;4914176;29;20020;-82
2023/07/08 08:40:31;;;;;;;9.57;4.50;;;;;;;;;;4897447;29;20199;-81
2023/07/08 08:43:21;;;;;;;9.97;4.67;;;;;;;;;;4924680;29;20035;-81
2023/07/08 08:46:05;;;;;;;9.50;4.22;;;28.30;92.90;;;;;;4886686;29;20091;-82
2023/07/08 08:48:38;;;;;;;9.38;4.65;;;;;;;;;;4929603;29;20024;-80
2023/07/08 08:54:15;;;;;;;7.60;4.35;;;;;;;;;;4918363;29;20075;-81
2023/07/08 08:57:19;;;;;;;9.40;5.45;;;28.60;92.30;;;;;;4920523;29;20040;-80
2023/07/08 08:59:50;;;;;;;7.30;4.22;;;;;;;;;;4899594;29;20321;-82
2023/07/08 09:02:27;;;;;;;6.40;4.05;;;;;;;;;;4918314;29;20036;-82
2023/07/08 09:04:53;;;;;;;9.40;4.20;;;;;;;;;;4904326;29;20025;-82
2023/07/08 09:07:23;;;;;;;10.05;4.43;;;;;;;;;;4902181;29;20024;-82
2023/07/08 09:10:04;;;;;;;10.43;4.55;;;29.20;92.00;;;;;;4899242;29;20505;-83
2023/07/08 09:12:31;;;;;;;11.30;4.55;;;;;;;;;;4919435;29;20028;-85
2023/07/08 09:15:00;;;;;;;8.75;4.78;;;;;;;;;;4908874;29;20485;-86
2023/07/08 09:17:57;;;;;;;5.25;3.45;;;;;;;;;;4921287;29;20036;-87
2023/07/08 09:20:58;;;;;;;6.65;3.85;;;;;;;;;;4854329;29;20049;-83
2023/07/08 09:24:04;;;;;;;9.23;4.18;;;29.40;91.60;;;;;;4839812;29;20090;-83
2023/07/08 09:26:33;;;;;;;7.97;4.32;;;;;;;;;;4912169;29;20059;-83
2023/07/08 09:28:59;;;;;;;8.75;4.18;;;;;;;;;;4922610;29;20039;-83
2023/07/08 09:31:32;;;;;;;8.77;4.28;;;;;;;;;;4924278;29;20048;-82
2023/07/08 09:34:15;;;;;;;8.70;4.03;;;;;;;;;;4918688;29;20043;-82
2023/07/08 09:36:42;;;;;;;8.32;4.25;;;;;;;;;;4901555;29;20032;-83
2023/07/08 09:39:29;;;;;;;9.10;4.50;;;;;;;;;;4915622;29;20028;-83
2023/07/08 09:41:56;;;;;;;10.70;4.18;;;;;;;;;;4915498;29;20508;-86
2023/07/08 09:44:28;;;;;;;9.77;4.47;;;;;;;;;;4913181;29;20044;-83
2023/07/08 09:46:55;;;;;;;7.32;3.97;;;;;;;;;;4920881;29;20025;-82
2023/07/08 09:49:28;;;;;;;9.02;4.00;;;;;;;;;;4902470;29;20024;-84
2023/07/08 09:51:55;;;;;;;10.65;4.32;;;;;;;;;;4901501;29;20055;-83
2023/07/08 09:54:22;;;;;;;11.90;4.65;;;;;;;;;;4901197;29;20040;-85
2023/07/08 09:56:59;;;;;;;10.15;4.13;;;;;;;;;;4895441;29;20040;-83
2023/07/08 09:59:31;;;;;;;7.50;3.85;;;;;;;;;;4917984;29;20028;-85
2023/07/08 10:01:59;;;;;;;6.80;4.20;;;;;;;;;;4898970;29;20103;-81
2023/07/08 10:04:26;;;;;;;9.65;3.92;;;;;;;;;;4900724;29;20835;-83
2023/07/08 10:06:57;;;;;;;6.57;3.65;;;;;;;;;;4919779;29;20075;-83
2023/07/08 10:09:24;;;;;;;7.60;4.55;;;;;;;;;;4902957;29;20048;-84
2023/07/08 10:12:02;;;;;;;4.93;3.20;;;30.80;87.40;;;;;;4900429;29;20627;-86
2023/07/08 10:14:36;;;;;;;9.65;3.42;;;30.90;86.30;;;;;;4900980;29;20035;-84
2023/07/08 10:17:02;;;;;;;8.55;4.03;;;;;;;;;;4918718;29;20024;-84
2023/07/08 10:19:28;;;;;;;6.55;3.70;;;;;;;;;;4918765;29;20060;-84
2023/07/08 10:22:14;;;;;;;8.32;3.85;;;;;;;;;;4915266;29;20028;-83
2023/07/08 10:24:52;;;;;;;8.32;3.20;;;;;;;;;;4895772;29;20028;-83
2023/07/08 10:27:22;;;;;;;8.32;4.05;;;;;;;;;;4896971;29;20043;-84
2023/07/08 10:30:02;;;;;;;7.90;3.30;;;;;;;;;;4898831;29;20028;-86
2023/07/08 10:32:55;;;;;;;6.65;3.50;;;31.50;83.60;;;;;;4921878;29;20552;-86
2023/07/08 10:35:28;;;;;;;9.18;3.83;;;;;;;;;;4920829;29;20391;-86
2023/07/08 10:38:03;;;;;;;8.65;3.78;;;;;;;;;;4903065;29;20032;-84
2023/07/08 10:40:32;;;;;;;5.10;2.95;;;;;;;;;;4917482;29;20028;-85
2023/07/08 10:43:05;;;;;;;9.82;3.53;;;;;;;;;;4919284;29;20092;-84
2023/07/08 10:45:39;;;;;;;10.05;3.80;;;;;;;;;;4915949;29;20055;-88
2023/07/08 10:48:20;;;;;;;6.95;3.20;;;;;;;;;;4920705;29;20107;-84
2023/07/08 10:51:12;;;;;;;6.53;3.70;;;;;;;;;;4896944;29;20115;-85
2023/07/08 10:54:06;;;;;;;13.45;3.85;;;31.90;80.40;;;;;;4892358;29;20792;-84
2023/07/08 10:56:40;;;;;;;6.22;3.47;;;31.80;79.70;;;;;;4901327;29;20055;-84
2023/07/08 10:59:11;;;;;;;7.80;3.90;;;31.90;80.50;;;;;;4923374;29;20827;-84
2023/07/08 11:01:58;;;;;;;5.20;3.25;;;32.10;80.30;;;;;;4899441;29;23147;-85
2023/07/08 11:04:38;;;;;;;8.07;3.63;;;32.10;79.80;;;;;;4921614;29;20028;-85
2023/07/08 11:07:24;;;;;;;6.93;3.85;;;32.20;79.90;;;;;;4919222;29;20083;-85
2023/07/08 11:09:54;;;;;;;8.68;3.53;;;32.30;79.20;;;;;;4890955;29;20044;-84
2023/07/08 11:12:41;;;;;;;5.95;3.50;;;32.40;79.10;;;;;;4898366;29;20020;-83
2023/07/08 11:15:25;;;;;;;7.50;3.70;;;32.40;78.20;;;;;;4893012;29;20998;-85
2023/07/08 11:17:51;;;;;;;8.75;3.60;;;;;;;;;;4909131;29;20035;-85
2023/07/08 11:20:51;;;;;;;8.50;3.92;;;32.30;78.10;;;;;;4895912;29;20036;-85
2023/07/08 11:23:37;;;;;;;6.47;3.40;;;32.40;77.30;;;;;;4870806;29;20046;-85
2023/07/08 11:26:38;;;;;;;7.40;3.30;;;32.50;77.00;;;;;;4891864;29;20028;-87
2023/07/08 11:29:19;;;;;;;6.95;3.80;;;32.70;77.10;;;;;;4918775;29;20039;-86
2023/07/08 11:31:46;;;;;;;6.38;3.53;;;32.80;76.20;;;;;;4917568;29;20047;-86
2023/07/08 11:34:13;;;;;;;5.70;3.38;;;33.00;76.60;;;;;;4903289;29;20035;-86
2023/07/08 11:36:40;;;;;;;7.35;3.80;;;33.00;76.30;;;;;;4920006;29;20024;-86
2023/07/08 11:39:27;;;;;;;7.80;3.53;;;32.80;75.90;;;;;;4916849;29;20119;-85
2023/07/08 11:41:55;;;;;;;9.25;3.22;;;;;;;;;;4897469;29;20052;-85
2023/07/08 11:44:21;;;;;;;9.43;4.05;;;;;;;;;;4896775;29;20052;-84
2023/07/08 11:46:55;;;;;;;8.38;3.35;;;33.00;74.30;;;;;;4893107;29;20040;-86
2023/07/08 11:49:23;;;;;;;6.68;3.28;;;33.10;73.70;;;;;;4897252;29;20062;-86
2023/07/08 11:51:49;;;;;;;5.53;3.15;;;;;;;;;;4916497;29;20031;-86
2023/07/08 11:54:15;;;;;;;7.38;3.10;;;;;;;;;;4897857;29;20100;-83
2023/07/08 11:57:00;;;;;;;8.10;3.40;;;33.00;73.90;;;;;;4915335;29;20032;-86
2023/07/08 11:59:30;;;;;;;9.38;3.50;;;33.00;72.90;;;;;;4893923;29;20767;-88
2023/07/08 12:02:16;;;;;;;5.38;3.03;;;33.10;73.30;;;;;;4912726;29;20095;-85
2023/07/08 12:05:14;;;;;;;5.18;3.42;;;33.10;74.10;;;;;;4912585;29;20851;-85
2023/07/08 12:07:58;;;;;;;9.47;4.13;;;;;;;;;;4855398;29;20036;-85
2023/07/08 12:10:26;;;;;;;6.53;3.58;;;;;;;;;;4907624;29;20058;-84
2023/07/08 12:12:52;;;;;;;7.63;3.80;;;;;;;;;;4896160;29;20080;-86
2023/07/08 12:15:30;;;;;;;6.18;3.72;;;;;;;;;;4916334;29;20040;-84
2023/07/08 12:18:34;;;;;;;8.95;3.60;;;;;;;;;;4915209;29;20043;-84
2023/07/08 12:21:06;;;;;;;7.10;3.50;;;;;;;;;;4901878;29;20123;-86
2023/07/08 12:23:32;;;;;;;6.50;3.20;;;;;;;;;;4898698;29;20028;-84
2023/07/08 12:26:02;;;;;;;6.57;3.50;;;;;;;;;;4915889;29;20036;-86
2023/07/08 12:28:37;;;;;;;9.43;3.63;;;;;;;;;;4898760;29;20028;-86
2023/07/08 12:31:23;;;;;;;5.97;3.50;;;;;;;;;;4913258;29;20408;-84
2023/07/08 12:33:55;;;;;;;5.32;3.38;;;;;;;;;;4895421;29;20504;-85
2023/07/08 12:36:25;;;;;;;6.57;3.15;;;;;;;;;;4916106;29;20039;-84
2023/07/08 12:38:58;;;;;;;7.85;3.40;;;;;;;;;;4914119;29;20057;-85
2023/07/08 12:41:34;;;;;;;6.28;3.60;;;;;;;;;;4890945;29;20572;-84
2023/07/08 12:44:16;;;;;;;9.20;3.13;;;;;;;;;;4913618;29;20035;-84
2023/07/08 12:46:44;;;;;;;5.28;2.80;;;;;;;;;;4916974;29;20021;-84
2023/07/08 12:52:30;;;;;;;7.80;3.17;;;;;;;;;;4915143;29;20040;-83
2023/07/08 12:55:20;;;;;;;;;;;;;;;;;;;;;
2023/07/08 12:58:47;;;;;;;;;;;;;;;;;;;;;
2023/07/08 13:01:49;;;;;;;;;;;;;;;;;;;;;
2023/07/08 13:05:03;;;;;;;10.82;3.22;;;;;;;;;;4815925;29;20045;-86
2023/07/08 13:07:54;;;;;;;;;;;;;;;;;;;;;
2023/07/08 13:10:32;;;;;;;6.85;3.50;;;;;;;;;;4786369;29;20031;-84
2023/07/08 13:13:27;;;;;;;7.35;3.60;;;;;;;;;;4833108;29;20044;-84
2023/07/08 13:16:08;;;;;;;6.80;3.55;;;;;;;;;;4900365;29;20033;-84
2023/07/08 13:18:51;;;;;;;7.32;3.03;;;;;;;;;;4910786;29;20040;-85
2023/07/08 13:24:57;;;;;;;6.07;3.40;;;;;;;;;;4915690;29;20676;-85
2023/07/08 13:27:31;;;;;;;6.95;3.42;;;;;;;;;;4910591;29;20054;-86
2023/07/08 13:30:15;;;;;;;7.72;3.60;;;;;;;;;;4894611;29;20070;-86
2023/07/08 13:33:07;;;;;;;;;;;;;;;;;;;;;
2023/07/08 13:35:56;;;;;;;4.97;3.05;;;;;;;;;;4915326;29;20096;-84
2023/07/08 13:38:44;;;;;;;;;;;33.10;68.70;;;;;;4915643;29;20031;-86
2023/07/08 13:41:12;;;;;;;8.57;3.60;;;;;;;;;;4912066;29;19922;-84
2023/07/08 13:43:40;;;;;;;8.20;3.28;;;;;;;;;;4894869;29;20385;-85
2023/07/08 13:46:32;;;;;;;5.53;3.15;;;33.50;67.80;;;;;;4916296;29;20028;-84
2023/07/08 13:49:08;;;;;;;7.60;3.25;;;;;;;;;;4917388;29;20393;-85
2023/07/08 13:51:52;;;;;;;;;;;;;;;;;;;;;
2023/07/08 13:55:03;;;;;;;;;;;;;;;;;;;;;
2023/07/08 14:03:23;;;;;;;5.60;3.13;;;;;;;;;;4924464;23;20597;-82
2023/07/08 14:05:50;;;;;;;8.90;3.83;;;33.60;68.20;;;;;;4887721;29;20047;-80
2023/07/08 14:08:17;;;;;;;5.18;3.22;;;33.60;68.20;;;;;;4872290;29;20468;-82
2023/07/08 14:10:44;;;;;;;5.72;3.38;;;;;;;;;;4889953;29;20056;-82
2023/07/08 14:13:11;;;;;;;8.75;3.70;;;33.60;69.20;;;;;;4885259;29;20052;-82
2023/07/08 14:15:38;;;;;;;8.15;3.42;;;;;;;;;;4869911;29;20036;-83
2023/07/08 14:18:05;;;;;;;4.88;3.22;;;;;;;;;;4889209;29;20443;-81
2023/07/08 14:20:32;;;;;;;5.80;3.20;;;;;;;;;;4872949;29;20060;-83
2023/07/08 14:22:58;;;;;;;4.20;3.05;;;33.30;69.20;;;;;;4885388;29;20032;-83
2023/07/08 14:25:24;;;;;;;8.02;3.53;;;;;;;;;;4887243;29;20040;-82
2023/07/08 14:27:50;;;;;;;5.93;3.42;;;33.40;69.00;;;;;;4886019;29;20032;-82
2023/07/08 14:30:16;;;;;;;6.57;3.50;;;;;;;;;;4888059;29;20051;-82
2023/07/08 14:32:42;;;;;;;5.90;3.17;;;;;;;;;;4892919;29;20035;-83
2023/07/08 14:35:25;;;;;;;7.68;3.40;;;33.60;67.20;;;;;;4895510;29;20547;-83
2023/07/08 14:37:53;;;;;;;5.05;2.70;;;;;;;;;;4889639;29;22664;-84
2023/07/08 14:40:45;;;;;;;5.68;2.80;;;33.70;63.30;;;;;;4893101;29;20088;-84
2023/07/08 14:43:18;;;;;;;5.82;2.95;;;;;;;;;;4893578;29;21041;-84
2023/07/08 14:45:56;;;;;;;8.85;2.95;;;33.70;62.90;;;;;;4894933;29;20023;-83
2023/07/08 14:48:23;;;;;;;5.20;2.88;;;33.70;62.40;;;;;;4882742;29;20028;-83
2023/07/08 14:50:50;;;;;;;5.10;2.47;;;;;;;;;;4893969;29;20068;-82
2023/07/08 14:53:17;;;;;;;5.85;3.00;;;36.00;63.90;;;;;;4897395;29;20491;-83
2023/07/08 14:55:45;;;;;;;4.70;2.72;;;33.80;62.00;;;;;;4897185;29;20036;-83
2023/07/08 14:58:32;;;;;;;6.65;2.90;;;33.90;61.70;;;;;;4892432;29;20036;-83
2023/07/08 15:01:02;;;;;;;4.38;2.63;;;33.80;61.20;;;;;;4886817;29;20096;-82
2023/07/08 15:03:28;;;;;;;9.57;2.97;;;;;;;;;;4887356;29;20391;-82
2023/07/08 15:05:55;;;;;;;6.18;3.13;;;;;;;;;;4892442;29;20042;-82
2023/07/08 15:08:21;;;;;;;5.35;2.88;;;;;;;;;;4892396;29;20484;-83
2023/07/08 15:10:52;;;;;;;4.82;2.75;;;34.00;60.80;;;;;;4892742;29;20068;-83
2023/07/08 15:13:20;;;;;;;4.72;2.80;;;33.90;60.00;;;;;;4895398;29;20043;-81
2023/07/08 15:15:46;;;;;;;5.20;2.65;;;;;;;;;;4896635;29;20032;-83